Time;durP1;ratioP1;P1;durP2;ratioP2;P2;SDS_P1;SDS_P2;PMS_P1;PMS_P2;Temp;Humidity;BMP_temperature;BMP_pressure;BME280_temperature;BME280_humidity;BME280_pressure;Samples;Min_cycle;Max_cycle;Signal;HPM_P1;HPM_P2
2021/08/11 00:00:18;;;;;;;4.45;3.50;;;21.00;70.20;;;;;;5077165;28;20040;-73
2021/08/11 00:02:44;;;;;;;5.72;4.13;;;20.90;70.10;;;;;;5086336;28;20104;-72
2021/08/11 00:05:10;;;;;;;3.95;3.55;;;20.90;70.20;;;;;;5096342;28;20036;-74
2021/08/11 00:07:36;;;;;;;5.47;4.30;;;20.90;70.20;;;;;;5097104;28;20071;-73
2021/08/11 00:10:04;;;;;;;4.80;3.70;;;20.90;70.20;;;;;;5097670;28;20048;-74
2021/08/11 00:12:29;;;;;;;7.53;4.45;;;20.90;70.20;;;;;;5097317;28;20059;-72
2021/08/11 00:14:59;;;;;;;7.28;4.38;;;20.90;70.20;;;;;;5097355;28;20036;-72
2021/08/11 00:17:25;;;;;;;5.53;4.15;;;20.90;70.20;;;;;;5096939;28;20032;-72
2021/08/11 00:19:51;;;;;;;5.22;4.05;;;20.90;70.30;;;;;;5097062;28;20123;-73
2021/08/11 00:22:17;;;;;;;4.85;3.50;;;20.90;70.30;;;;;;5096996;28;20447;-73
2021/08/11 00:24:43;;;;;;;5.18;3.67;;;20.90;70.40;;;;;;5096731;28;20123;-72
2021/08/11 00:27:09;;;;;;;6.47;3.83;;;20.90;70.40;;;;;;5096875;28;20058;-72
2021/08/11 00:29:34;;;;;;;4.35;3.25;;;20.90;70.40;;;;;;5097006;28;20420;-74
2021/08/11 00:32:01;;;;;;;6.18;3.33;;;20.90;70.50;;;;;;5094421;28;20060;-72
2021/08/11 00:34:27;;;;;;;7.05;4.53;;;20.80;70.40;;;;;;5075264;28;20036;-74
2021/08/11 00:36:54;;;;;;;4.80;4.13;;;20.80;70.50;;;;;;5076341;28;20032;-74
2021/08/11 00:39:20;;;;;;;5.25;4.03;;;20.80;70.50;;;;;;5077004;28;20048;-73
2021/08/11 00:41:46;;;;;;;4.05;3.58;;;20.80;70.50;;;;;;5076895;28;20044;-72
2021/08/11 00:44:12;;;;;;;6.68;4.00;;;20.80;70.50;;;;;;5076371;28;20094;-72
2021/08/11 00:46:46;;;;;;;4.10;3.58;;;20.80;70.50;;;;;;5076015;28;20076;-73
2021/08/11 00:49:14;;;;;;;5.72;3.80;;;20.80;70.50;;;;;;5075886;28;20079;-73
2021/08/11 00:51:42;;;;;;;4.50;3.80;;;20.80;70.60;;;;;;5075906;28;20054;-74
2021/08/11 00:54:09;;;;;;;5.93;3.63;;;20.80;70.60;;;;;;5075917;28;20049;-72
2021/08/11 00:56:45;;;;;;;4.50;3.70;;;20.80;70.60;;;;;;5133798;27;20732;-72
2021/08/11 00:59:14;;;;;;;5.03;3.53;;;20.80;70.60;;;;;;5113322;28;20427;-71
2021/08/11 01:01:40;;;;;;;5.07;3.67;;;20.80;70.60;;;;;;5112905;28;20039;-72
2021/08/11 01:04:10;;;;;;;6.15;3.85;;;20.80;71.20;;;;;;5112197;28;20427;-72
2021/08/11 01:06:38;;;;;;;6.05;4.15;;;20.70;70.60;;;;;;5112382;28;20067;-73
2021/08/11 01:09:04;;;;;;;4.63;3.78;;;20.70;70.60;;;;;;5113692;28;20065;-73
2021/08/11 01:11:30;;;;;;;6.50;4.05;;;20.70;70.70;;;;;;5113572;28;20048;-72
2021/08/11 01:13:58;;;;;;;5.03;4.20;;;20.70;70.70;;;;;;5113125;28;20035;-73
2021/08/11 01:16:24;;;;;;;4.50;3.25;;;20.80;70.70;;;;;;5112594;28;20130;-72
2021/08/11 01:18:50;;;;;;;5.90;3.88;;;20.70;70.70;;;;;;5110823;28;20098;-73
2021/08/11 01:21:33;;;;;;;6.40;3.88;;;20.70;70.70;;;;;;5109284;28;20382;-72
2021/08/11 01:24:18;;;;;;;5.47;3.72;;;20.70;70.80;;;;;;5092928;28;20044;-73
2021/08/11 01:27:02;;;;;;;4.93;3.95;;;20.70;70.80;;;;;;5092442;28;20044;-73
2021/08/11 01:29:31;;;;;;;;;;;20.70;70.90;;;;;;5092516;28;20068;-73
2021/08/11 01:32:03;;;;;;;4.15;3.47;;;20.70;70.70;;;;;;5092306;28;20302;-71
2021/08/11 01:34:36;;;;;;;4.63;3.75;;;20.70;70.90;;;;;;5092154;28;20431;-72
2021/08/11 01:37:08;;;;;;;4.63;3.33;;;20.70;70.90;;;;;;5092023;28;20083;-74
2021/08/11 01:39:37;;;;;;;7.15;3.83;;;20.70;70.90;;;;;;5091981;28;20051;-73
2021/08/11 01:42:10;;;;;;;5.47;3.55;;;20.70;71.00;;;;;;5092008;28;20128;-72
2021/08/11 01:44:43;;;;;;;;;;;20.60;71.50;;;;;;5092534;28;20320;-72
2021/08/11 01:47:13;;;;;;;5.82;3.78;;;20.60;70.70;;;;;;5091878;28;20358;-74
2021/08/11 01:49:42;;;;;;;5.90;3.70;;;20.60;70.90;;;;;;5092100;28;20047;-73
2021/08/11 01:52:08;;;;;;;6.15;4.18;;;20.60;70.90;;;;;;5101593;28;20359;-73
2021/08/11 01:54:36;;;;;;;5.75;3.42;;;20.60;70.90;;;;;;5111572;28;20152;-72
2021/08/11 01:57:04;;;;;;;5.47;3.80;;;20.60;70.90;;;;;;5112153;28;20096;-72
2021/08/11 01:59:30;;;;;;;4.43;4.03;;;20.60;70.90;;;;;;5094176;28;20126;-72
2021/08/11 02:01:56;;;;;;;4.38;3.80;;;20.60;70.90;;;;;;5111462;28;20130;-72
2021/08/11 02:04:23;;;;;;;4.95;3.85;;;20.60;70.90;;;;;;5111974;28;20040;-72
2021/08/11 02:06:50;;;;;;;5.20;4.15;;;20.60;70.90;;;;;;5105469;28;20423;-73
2021/08/11 02:09:19;;;;;;;4.68;3.75;;;20.60;71.50;;;;;;5098817;28;20054;-73
2021/08/11 02:11:45;;;;;;;3.97;3.50;;;20.60;70.90;;;;;;5098300;28;20047;-73
2021/08/11 02:14:11;;;;;;;6.43;3.95;;;20.60;70.90;;;;;;5098066;28;20055;-73
2021/08/11 02:16:42;;;;;;;6.28;3.97;;;20.60;70.90;;;;;;5098096;28;20055;-72
2021/08/11 02:19:09;;;;;;;5.10;3.78;;;20.60;70.90;;;;;;5098587;28;20059;-74
2021/08/11 02:21:36;;;;;;;5.28;3.83;;;20.60;70.90;;;;;;5092875;28;20040;-72
2021/08/11 02:24:04;;;;;;;6.20;3.47;;;20.60;70.90;;;;;;5078034;28;20094;-73
2021/08/11 02:26:54;;;;;;;4.38;3.20;;;20.60;71.40;;;;;;5077775;28;20072;-72
2021/08/11 02:29:40;;;;;;;4.00;3.60;;;20.60;70.80;;;;;;5078046;28;20145;-73
2021/08/11 02:32:22;;;;;;;4.18;3.60;;;20.60;70.80;;;;;;5077724;28;20119;-72
2021/08/11 02:35:02;;;;;;;5.10;3.70;;;20.60;70.80;;;;;;5077710;28;20036;-72
2021/08/11 02:37:54;;;;;;;5.70;3.97;;;20.60;70.80;;;;;;5077197;28;20045;-72
2021/08/11 02:40:33;;;;;;;4.47;3.00;;;20.60;70.60;;;;;;5077453;28;20037;-72
2021/08/11 02:43:27;;;;;;;6.15;3.55;;;20.60;70.70;;;;;;5077657;28;20051;-72
2021/08/11 02:46:01;;;;;;;4.28;3.50;;;20.60;70.70;;;;;;5076976;28;20036;-72
2021/08/11 02:48:29;;;;;;;5.90;3.70;;;20.60;70.70;;;;;;5077519;28;20104;-72
2021/08/11 02:50:55;;;;;;;3.92;3.15;;;20.60;70.80;;;;;;5078776;28;20040;-71
2021/08/11 02:53:24;;;;;;;4.13;3.58;;;20.60;70.80;;;;;;5097364;28;20467;-72
2021/08/11 02:55:51;;;;;;;5.90;3.70;;;20.60;70.80;;;;;;5097412;28;20048;-73
2021/08/11 02:58:19;;;;;;;4.68;3.60;;;20.60;70.90;;;;;;5097094;28;20071;-72
2021/08/11 03:00:51;;;;;;;5.60;3.55;;;20.60;70.90;;;;;;5091877;28;20041;-73
2021/08/11 03:03:18;;;;;;;5.45;3.30;;;20.60;70.90;;;;;;5076848;28;20045;-73
2021/08/11 03:05:45;;;;;;;5.28;3.65;;;20.60;70.90;;;;;;5076989;28;20118;-72
2021/08/11 03:08:10;;;;;;;4.43;3.15;;;20.50;70.90;;;;;;5077050;28;20438;-71
2021/08/11 03:10:40;;;;;;;6.20;3.70;;;20.50;70.90;;;;;;5076575;28;20139;-73
2021/08/11 03:13:09;;;;;;;4.53;3.60;;;20.60;70.90;;;;;;5076625;28;20124;-72
2021/08/11 03:15:36;;;;;;;6.35;3.83;;;20.50;70.80;;;;;;5076391;28;20052;-72
2021/08/11 03:18:02;;;;;;;6.47;3.90;;;20.50;70.90;;;;;;5075909;28;20040;-72
2021/08/11 03:20:31;;;;;;;6.28;3.78;;;20.50;70.90;;;;;;5076817;28;20043;-73
2021/08/11 03:22:56;;;;;;;4.88;3.90;;;20.50;70.90;;;;;;5076761;28;20036;-72
2021/08/11 03:25:22;;;;;;;5.20;3.78;;;20.50;71.00;;;;;;5059333;28;20402;-73
2021/08/11 03:27:48;;;;;;;5.40;4.43;;;20.50;71.00;;;;;;5076244;28;20082;-72
2021/08/11 03:30:14;;;;;;;4.35;3.70;;;20.50;71.00;;;;;;5076408;28;20521;-73
2021/08/11 03:32:40;;;;;;;6.00;4.22;;;20.50;71.00;;;;;;5097312;28;20043;-72
2021/08/11 03:35:09;;;;;;;5.13;3.70;;;20.50;71.10;;;;;;5096483;28;20138;-71
2021/08/11 03:37:34;;;;;;;4.45;3.47;;;20.50;71.10;;;;;;5096315;28;20126;-73
2021/08/11 03:40:00;;;;;;;6.32;4.20;;;20.50;71.10;;;;;;5096277;28;20028;-72
2021/08/11 03:42:26;;;;;;;5.43;3.67;;;20.40;71.00;;;;;;5096745;28;20113;-73
2021/08/11 03:44:53;;;;;;;5.38;4.13;;;20.50;71.10;;;;;;5097018;28;20127;-72
2021/08/11 03:47:19;;;;;;;5.65;3.42;;;20.40;71.10;;;;;;5096262;28;20115;-72
2021/08/11 03:49:46;;;;;;;5.57;3.53;;;20.40;71.00;;;;;;5096549;28;20112;-72
2021/08/11 03:52:12;;;;;;;4.57;3.50;;;20.40;71.00;;;;;;5096979;28;20063;-71
2021/08/11 03:54:38;;;;;;;4.18;3.40;;;20.40;71.00;;;;;;5096150;28;20048;-73
2021/08/11 03:57:04;;;;;;;3.95;3.45;;;20.50;71.00;;;;;;5096127;28;20445;-73
2021/08/11 03:59:30;;;;;;;5.63;3.75;;;20.50;71.00;;;;;;5096325;28;20405;-73
2021/08/11 04:01:56;;;;;;;5.32;3.70;;;20.50;71.00;;;;;;5087843;28;20117;-74
2021/08/11 04:04:22;;;;;;;5.05;3.80;;;20.50;70.90;;;;;;5096008;28;20439;-73
2021/08/11 04:06:47;;;;;;;6.10;3.30;;;20.40;70.90;;;;;;5096266;28;20040;-72
2021/08/11 04:09:13;;;;;;;4.72;3.58;;;20.40;71.50;;;;;;5095735;28;20040;-72
2021/08/11 04:11:39;;;;;;;7.78;3.88;;;20.40;70.90;;;;;;5096248;28;20048;-73
2021/08/11 04:14:05;;;;;;;5.55;3.85;;;20.40;70.90;;;;;;5096505;28;20078;-72
2021/08/11 04:16:31;;;;;;;4.93;3.45;;;20.40;70.90;;;;;;5095682;28;20122;-72
2021/08/11 04:18:57;;;;;;;5.90;3.63;;;20.40;70.90;;;;;;5096499;28;20040;-73
2021/08/11 04:21:22;;;;;;;4.78;3.28;;;20.40;70.90;;;;;;5095851;28;20082;-72
2021/08/11 04:23:48;;;;;;;4.68;3.13;;;20.40;70.90;;;;;;5078423;28;20128;-72
2021/08/11 04:26:14;;;;;;;4.88;3.47;;;20.40;70.90;;;;;;5095390;28;20048;-72
2021/08/11 04:28:40;;;;;;;4.55;3.38;;;20.40;70.90;;;;;;5092158;28;20036;-73
2021/08/11 04:31:06;;;;;;;4.40;3.22;;;20.40;71.00;;;;;;5095458;28;20040;-72
2021/08/11 04:33:32;;;;;;;4.85;3.42;;;20.40;70.90;;;;;;5096289;28;20304;-73
2021/08/11 04:36:02;;;;;;;4.80;3.55;;;20.40;71.00;;;;;;5095555;28;20378;-73
2021/08/11 04:38:28;;;;;;;4.53;3.67;;;20.40;71.00;;;;;;5095846;28;20043;-73
2021/08/11 04:40:54;;;;;;;4.95;3.42;;;20.40;71.00;;;;;;5095055;28;20047;-71
2021/08/11 04:43:21;;;;;;;4.20;3.40;;;20.40;71.00;;;;;;5095462;28;20075;-72
2021/08/11 04:45:46;;;;;;;5.38;3.22;;;20.40;71.00;;;;;;5095318;28;20426;-72
2021/08/11 04:48:12;;;;;;;5.35;4.18;;;20.40;71.10;;;;;;5095610;28;20056;-72
2021/08/11 04:50:38;;;;;;;4.90;3.63;;;20.40;71.00;;;;;;5095616;28;20064;-72
2021/08/11 04:53:04;;;;;;;4.38;3.35;;;20.40;71.00;;;;;;5095145;28;20039;-74
2021/08/11 04:55:30;;;;;;;5.10;3.72;;;20.40;71.00;;;;;;5095164;28;20056;-72
2021/08/11 04:57:58;;;;;;;5.05;3.25;;;20.30;71.00;;;;;;5082599;28;20040;-72
2021/08/11 05:00:23;;;;;;;4.00;3.03;;;20.30;71.00;;;;;;5075439;28;20051;-73
2021/08/11 05:02:50;;;;;;;6.32;3.08;;;20.40;71.00;;;;;;5075056;28;20079;-71
2021/08/11 05:05:16;;;;;;;3.83;3.00;;;20.30;71.00;;;;;;5075000;28;20072;-72
2021/08/11 05:07:41;;;;;;;5.60;3.40;;;20.30;70.90;;;;;;5075401;28;20044;-72
2021/08/11 05:10:08;;;;;;;5.95;3.38;;;20.30;70.90;;;;;;5075253;28;20041;-72
2021/08/11 05:12:34;;;;;;;4.18;2.83;;;20.30;70.90;;;;;;5075246;28;20141;-72
2021/08/11 05:15:05;;;;;;;4.30;2.97;;;20.30;70.90;;;;;;5074824;28;20036;-71
2021/08/11 05:17:31;;;;;;;5.65;3.20;;;20.30;70.90;;;;;;5074593;28;20044;-72
2021/08/11 05:19:57;;;;;;;4.80;3.40;;;20.30;70.90;;;;;;5075082;28;20043;-72
2021/08/11 05:22:23;;;;;;;4.57;3.03;;;20.30;70.90;;;;;;5074824;28;20506;-72
2021/08/11 05:24:50;;;;;;;4.82;3.05;;;20.30;70.90;;;;;;5075225;28;20424;-72
2021/08/11 05:27:17;;;;;;;4.82;3.28;;;20.30;70.90;;;;;;5080774;28;20039;-72
2021/08/11 05:29:45;;;;;;;4.30;3.38;;;20.30;71.00;;;;;;5095094;28;20431;-71
2021/08/11 05:32:12;;;;;;;5.13;3.88;;;20.30;71.00;;;;;;5095038;28;20449;-71
2021/08/11 05:34:38;;;;;;;8.25;4.22;;;20.30;71.10;;;;;;5094911;28;20064;-72
2021/08/11 05:37:05;;;;;;;7.00;4.60;;;20.30;71.00;;;;;;5094885;28;20115;-71
2021/08/11 05:39:31;;;;;;;7.93;5.38;;;20.30;70.90;;;;;;5095398;28;20067;-73
2021/08/11 05:41:58;;;;;;;7.25;5.18;;;20.30;70.80;;;;;;5096842;28;20139;-72
2021/08/11 05:44:23;;;;;;;8.48;6.07;;;20.30;70.70;;;;;;5098513;28;20115;-71
2021/08/11 05:46:49;;;;;;;8.13;5.63;;;20.40;70.70;;;;;;5098555;28;20173;-72
2021/08/11 05:49:15;;;;;;;9.85;6.20;;;20.40;70.60;;;;;;5098988;28;20151;-71
2021/08/11 05:51:41;;;;;;;10.50;6.03;;;20.40;70.60;;;;;;5098927;28;20122;-70
2021/08/11 05:54:08;;;;;;;8.07;5.88;;;20.40;70.50;;;;;;5098490;28;20561;-72
2021/08/11 05:56:35;;;;;;;8.77;5.88;;;20.40;70.50;;;;;;5097654;28;20052;-72
2021/08/11 05:59:00;;;;;;;7.57;6.03;;;20.40;70.60;;;;;;5078224;28;20047;-71
2021/08/11 06:01:27;;;;;;;8.48;6.68;;;20.40;70.50;;;;;;5078353;28;20109;-71
2021/08/11 06:04:00;;;;;;;11.75;6.65;;;20.40;70.60;;;;;;5077809;28;20072;-71
2021/08/11 06:06:28;;;;;;;8.95;6.18;;;20.40;70.60;;;;;;5077825;28;20099;-71
2021/08/11 06:08:54;;;;;;;9.23;6.55;;;20.40;70.70;;;;;;5077810;28;20356;-72
2021/08/11 06:11:20;;;;;;;10.00;6.07;;;20.40;70.80;;;;;;5078181;28;20036;-71
2021/08/11 06:13:46;;;;;;;10.27;6.32;;;20.40;70.70;;;;;;5078081;28;20428;-72
2021/08/11 06:16:12;;;;;;;11.85;6.10;;;20.40;70.70;;;;;;5077845;28;20090;-70
2021/08/11 06:18:38;;;;;;;9.38;6.15;;;20.40;70.60;;;;;;5078035;28;20115;-69
2021/08/11 06:21:04;;;;;;;9.80;5.85;;;20.50;70.70;;;;;;5094986;28;20417;-71
2021/08/11 06:23:30;;;;;;;10.38;5.95;;;20.50;70.80;;;;;;5098046;28;20073;-72
2021/08/11 06:25:56;;;;;;;14.55;7.93;;;20.40;70.80;;;;;;5097862;28;20051;-74
2021/08/11 06:28:22;;;;;;;23.15;15.90;;;20.50;70.90;;;;;;5097850;28;20028;-72
2021/08/11 06:30:48;;;;;;;48.72;27.63;;;20.50;71.20;;;;;;5097905;28;20044;-74
2021/08/11 06:33:13;;;;;;;77.03;41.83;;;20.50;71.30;;;;;;5097396;28;20059;-74
2021/08/11 06:35:39;;;;;;;49.97;26.48;;;20.40;71.40;;;;;;5098010;28;20040;-75
2021/08/11 06:38:05;;;;;;;26.50;18.10;;;20.40;71.80;;;;;;5098239;28;20048;-74
2021/08/11 06:40:36;;;;;;;31.35;13.93;;;20.40;72.00;;;;;;5097643;28;20118;-72
2021/08/11 06:43:02;;;;;;;23.15;15.55;;;20.40;72.20;;;;;;5097592;28;20040;-74
2021/08/11 06:45:27;;;;;;;20.38;13.32;;;20.40;72.80;;;;;;5097765;28;20040;-72
2021/08/11 06:47:53;;;;;;;20.88;12.98;;;20.40;72.60;;;;;;5097516;28;20044;-73
2021/08/11 06:50:19;;;;;;;16.30;10.63;;;20.40;72.60;;;;;;5095616;28;20036;-72
2021/08/11 06:52:45;;;;;;;13.60;9.25;;;20.40;72.50;;;;;;5097305;28;20055;-73
2021/08/11 06:55:15;;;;;;;14.40;9.05;;;20.40;72.40;;;;;;5097663;28;20052;-71
2021/08/11 06:57:41;;;;;;;13.93;9.73;;;20.40;72.50;;;;;;5097541;28;20036;-73
2021/08/11 07:00:09;;;;;;;12.85;8.73;;;20.40;72.70;;;;;;5097326;28;20113;-73
2021/08/11 07:02:35;;;;;;;16.25;8.65;;;20.40;72.60;;;;;;5096692;28;20351;-72
2021/08/11 07:05:03;;;;;;;12.18;8.63;;;20.40;72.80;;;;;;5096985;28;20040;-74
2021/08/11 07:07:30;;;;;;;13.52;7.28;;;20.40;73.00;;;;;;5097058;28;20040;-72
2021/08/11 07:09:57;;;;;;;16.90;7.88;;;20.40;73.20;;;;;;5097349;28;20105;-74
2021/08/11 07:12:24;;;;;;;13.30;7.55;;;20.40;73.30;;;;;;5097244;28;20032;-73
2021/08/11 07:14:49;;;;;;;15.05;7.93;;;20.50;73.50;;;;;;5097275;28;20047;-73
2021/08/11 07:17:16;;;;;;;12.65;7.43;;;20.50;73.40;;;;;;5096855;28;20039;-73
2021/08/11 07:19:41;;;;;;;13.60;7.25;;;20.50;73.40;;;;;;5088580;28;20359;-73
2021/08/11 07:22:09;;;;;;;15.23;7.63;;;20.50;73.50;;;;;;5076270;28;20063;-74
2021/08/11 07:24:35;;;;;;;13.50;8.18;;;20.60;73.60;;;;;;5076648;28;20048;-72
2021/08/11 07:27:02;;;;;;;14.93;7.55;;;20.60;73.70;;;;;;5076641;28;20082;-71
2021/08/11 07:29:28;;;;;;;14.05;7.25;;;20.60;73.70;;;;;;5076474;28;20435;-73
2021/08/11 07:31:53;;;;;;;18.50;8.23;;;20.60;73.80;;;;;;5076511;28;20186;-73
2021/08/11 07:34:19;;;;;;;21.20;7.97;;;20.60;74.20;;;;;;5093103;28;20093;-73
2021/08/11 07:36:45;;;;;;;14.32;6.88;;;20.70;74.10;;;;;;5076211;28;20045;-72
2021/08/11 07:39:13;;;;;;;12.98;6.03;;;20.60;74.10;;;;;;5100454;28;20054;-71
2021/08/11 07:41:39;;;;;;;11.77;6.03;;;20.70;74.00;;;;;;5117004;28;20114;-72
2021/08/11 07:44:06;;;;;;;11.50;6.10;;;20.70;74.00;;;;;;5116314;28;20143;-73
2021/08/11 07:46:31;;;;;;;10.65;4.75;;;20.70;74.00;;;;;;5117228;28;20426;-73
2021/08/11 07:48:59;;;;;;;10.48;4.95;;;20.70;74.00;;;;;;5113497;28;20044;-72
2021/08/11 07:51:25;;;;;;;8.05;5.15;;;20.80;74.00;;;;;;5096361;28;20079;-72
2021/08/11 07:53:51;;;;;;;7.57;5.03;;;20.70;73.90;;;;;;5096299;28;20182;-72
2021/08/11 07:56:17;;;;;;;10.40;4.30;;;20.70;73.90;;;;;;5095335;28;20526;-72
2021/08/11 07:58:43;;;;;;;9.57;4.63;;;20.70;73.80;;;;;;5096076;28;20415;-72
2021/08/11 08:01:09;;;;;;;11.25;4.68;;;20.70;73.80;;;;;;5095842;28;20116;-72
2021/08/11 08:03:35;;;;;;;9.93;4.28;;;20.80;73.90;;;;;;5076861;28;20098;-73
2021/08/11 08:06:01;;;;;;;13.15;4.55;;;20.80;73.90;;;;;;5075287;28;20115;-72
2021/08/11 08:08:27;;;;;;;12.48;4.80;;;20.80;73.90;;;;;;5075994;28;20135;-73
2021/08/11 08:10:52;;;;;;;11.38;6.68;;;20.80;73.90;;;;;;5076320;28;20051;-76
2021/08/11 08:13:20;;;;;;;16.27;10.35;;;20.80;74.20;;;;;;5075640;28;20044;-73
2021/08/11 08:15:48;;;;;;;12.98;7.55;;;20.80;74.90;;;;;;5075710;28;20036;-73
2021/08/11 08:18:20;;;;;;;15.43;6.45;;;20.90;74.90;;;;;;5075546;28;20123;-73
2021/08/11 08:20:50;;;;;;;13.85;6.22;;;20.80;74.80;;;;;;5075234;28;20347;-71
2021/08/11 08:23:16;;;;;;;9.20;5.50;;;20.80;74.80;;;;;;5075454;28;20120;-74
2021/08/11 08:25:42;;;;;;;12.10;6.47;;;20.80;74.70;;;;;;5093236;28;20040;-72
2021/08/11 08:28:08;;;;;;;11.95;5.95;;;20.90;74.70;;;;;;5095422;28;20047;-73
2021/08/11 08:30:35;;;;;;;21.23;7.38;;;20.90;74.50;;;;;;5074978;28;20040;-72
2021/08/11 08:33:01;;;;;;;21.27;7.05;;;20.90;74.60;;;;;;5075538;28;20147;-71
2021/08/11 08:35:26;;;;;;;14.20;7.50;;;20.90;74.60;;;;;;5075082;28;20488;-73
2021/08/11 08:37:52;;;;;;;17.80;7.82;;;20.90;74.60;;;;;;5075335;28;20056;-72
2021/08/11 08:40:18;;;;;;;18.77;7.97;;;20.90;74.60;;;;;;5075325;28;20050;-73
2021/08/11 08:42:44;;;;;;;13.77;8.10;;;20.90;74.60;;;;;;5075398;28;20170;-72
2021/08/11 08:45:12;;;;;;;18.70;7.57;;;20.90;74.60;;;;;;5075117;28;20086;-73
2021/08/11 08:47:40;;;;;;;14.20;7.88;;;20.90;74.70;;;;;;5075211;28;20115;-74
2021/08/11 08:50:08;;;;;;;11.02;7.63;;;20.90;74.70;;;;;;5075324;28;20040;-73
2021/08/11 08:52:36;;;;;;;12.35;7.15;;;20.90;74.70;;;;;;5075107;28;20044;-72
2021/08/11 08:55:04;;;;;;;11.27;7.05;;;20.90;74.70;;;;;;5074692;28;20059;-73
2021/08/11 08:57:30;;;;;;;11.88;7.45;;;20.90;74.70;;;;;;5075095;28;20036;-73
2021/08/11 08:59:56;;;;;;;10.10;7.82;;;20.90;74.70;;;;;;5075147;28;20041;-80
2021/08/11 09:02:22;;;;;;;17.58;9.15;;;20.90;74.80;;;;;;5074720;28;20371;-74
2021/08/11 09:04:49;;;;;;;15.63;7.57;;;20.90;75.10;;;;;;5074986;28;20040;-73
2021/08/11 09:07:18;;;;;;;18.15;7.65;;;20.90;75.10;;;;;;5077553;28;20118;-75
2021/08/11 09:09:44;;;;;;;16.95;6.95;;;20.90;75.20;;;;;;5093523;28;20474;-75
2021/08/11 09:12:12;;;;;;;16.80;7.30;;;20.90;75.10;;;;;;5088305;28;20048;-71
2021/08/11 09:14:41;;;;;;;12.07;7.68;;;20.90;75.20;;;;;;5075273;28;20424;-71
2021/08/11 09:17:07;;;;;;;14.02;8.07;;;21.00;75.10;;;;;;5076530;28;20064;-71
2021/08/11 09:19:45;;;;;;;11.95;6.90;;;20.90;75.00;;;;;;5079966;28;20071;-71
2021/08/11 09:22:13;;;;;;;14.40;7.75;;;20.90;75.00;;;;;;5078897;28;20041;-72
2021/08/11 09:24:40;;;;;;;12.95;7.47;;;21.00;75.10;;;;;;5078698;28;20455;-71
2021/08/11 09:27:24;;;;;;;14.75;7.25;;;20.90;75.30;;;;;;5079050;28;20036;-71
2021/08/11 09:30:16;;;;;;;12.40;7.88;;;21.00;75.30;;;;;;5078705;28;20357;-71
2021/08/11 09:33:02;;;;;;;21.80;7.07;;;21.00;75.30;;;;;;5078299;28;20041;-71
2021/08/11 09:35:38;;;;;;;22.67;7.75;;;21.00;75.30;;;;;;5078617;28;20036;-71
2021/08/11 09:38:12;;;;;;;11.23;6.28;;;21.00;75.60;;;;;;5078808;28;20347;-71
2021/08/11 09:40:41;;;;;;;11.98;7.38;;;21.00;75.60;;;;;;5081208;28;20051;-72
2021/08/11 09:43:32;;;;;;;11.43;6.45;;;21.00;75.50;;;;;;5098802;28;20044;-71
2021/08/11 09:45:58;;;;;;;10.50;5.97;;;21.00;75.40;;;;;;5098955;28;20138;-71
2021/08/11 09:48:38;;;;;;;13.38;6.30;;;21.00;75.30;;;;;;5098551;28;20518;-71
2021/08/11 09:51:06;;;;;;;8.38;6.10;;;21.00;75.30;;;;;;5098664;28;20048;-71
2021/08/11 09:53:37;;;;;;;9.07;5.53;;;21.00;75.40;;;;;;5098453;28;20355;-72
2021/08/11 09:56:06;;;;;;;13.55;5.50;;;21.10;75.40;;;;;;5098467;28;20347;-72
2021/08/11 09:59:01;;;;;;;8.30;5.18;;;21.10;75.60;;;;;;5099156;28;20044;-73
2021/08/11 10:01:28;;;;;;;12.05;4.97;;;21.10;75.40;;;;;;5098273;28;20048;-73
2021/08/11 10:04:03;;;;;;;11.60;5.40;;;21.10;75.70;;;;;;5098071;28;20146;-69
2021/08/11 10:06:34;;;;;;;12.80;5.93;;;21.10;75.40;;;;;;5098650;28;20066;-72
2021/08/11 10:09:21;;;;;;;10.13;4.35;;;21.10;75.60;;;;;;5088618;28;20068;-72
2021/08/11 10:11:50;;;;;;;10.90;5.10;;;21.20;75.70;;;;;;5089944;28;20119;-73
2021/08/11 10:14:22;;;;;;;12.20;5.90;;;21.20;75.60;;;;;;5098346;28;20115;-71
2021/08/11 10:16:48;;;;;;;10.80;4.75;;;21.20;75.50;;;;;;5098080;28;20082;-72
2021/08/11 10:19:15;;;;;;;9.73;5.10;;;21.20;75.60;;;;;;5087537;28;20459;-71
2021/08/11 10:21:47;;;;;;;11.45;5.15;;;21.20;75.60;;;;;;5083228;28;20503;-72
2021/08/11 10:24:14;;;;;;;13.35;4.32;;;21.20;75.50;;;;;;5078090;28;20107;-73
2021/08/11 10:26:40;;;;;;;11.25;4.80;;;21.20;75.60;;;;;;5077845;28;20414;-72
2021/08/11 10:29:06;;;;;;;8.25;4.53;;;21.20;75.70;;;;;;5076983;28;20040;-74
2021/08/11 10:31:33;;;;;;;22.33;4.80;;;21.20;75.70;;;;;;5077533;28;20405;-76
2021/08/11 10:34:02;;;;;;;19.80;5.20;;;21.20;76.00;;;;;;5077694;28;20115;-71
2021/08/11 10:36:32;;;;;;;11.85;4.93;;;21.30;76.20;;;;;;5077507;28;20368;-71
2021/08/11 10:39:00;;;;;;;13.30;4.72;;;21.30;75.90;;;;;;5077384;28;20115;-72
2021/08/11 10:41:32;;;;;;;13.52;4.18;;;21.30;75.80;;;;;;5078163;28;20146;-70
2021/08/11 10:43:59;;;;;;;16.77;4.32;;;21.30;75.60;;;;;;5077541;28;20040;-72
2021/08/11 10:46:41;;;;;;;10.98;3.85;;;21.30;75.60;;;;;;5077618;28;20044;-72
2021/08/11 10:49:08;;;;;;;12.55;4.50;;;21.30;76.00;;;;;;5078054;28;20032;-71
2021/08/11 10:51:39;;;;;;;7.05;4.03;;;21.30;75.40;;;;;;5077227;28;20044;-72
2021/08/11 10:54:06;;;;;;;10.95;4.00;;;21.30;75.30;;;;;;5077057;28;20048;-71
2021/08/11 10:56:50;;;;;;;10.20;4.68;;;21.30;75.30;;;;;;5076631;28;20063;-72
2021/08/11 10:59:21;;;;;;;;;;;21.40;75.20;;;;;;5077265;28;20508;-71
2021/08/11 11:01:53;;;;;;;7.85;3.70;;;21.30;74.90;;;;;;5077233;28;19978;-71
2021/08/11 11:04:38;;;;;;;8.50;4.00;;;21.30;75.10;;;;;;5077305;28;20052;-72
2021/08/11 11:07:14;;;;;;;9.88;3.95;;;21.40;75.00;;;;;;5076983;28;20052;-71
2021/08/11 11:09:42;;;;;;;9.85;3.97;;;21.30;74.90;;;;;;5077697;28;20112;-70
2021/08/11 11:12:17;;;;;;;8.77;3.45;;;21.30;74.90;;;;;;5093954;28;20123;-72
2021/08/11 11:14:48;;;;;;;7.78;3.58;;;21.30;74.80;;;;;;5096777;28;20035;-70
2021/08/11 11:17:15;;;;;;;7.35;3.78;;;21.30;74.90;;;;;;5097299;28;20052;-71
2021/08/11 11:20:03;;;;;;;6.30;3.40;;;21.30;74.80;;;;;;5096605;28;20466;-71
2021/08/11 11:22:39;;;;;;;7.28;3.72;;;21.30;74.70;;;;;;5096869;28;20047;-71
2021/08/11 11:25:08;;;;;;;6.13;3.65;;;21.30;74.70;;;;;;5096788;28;20119;-71
2021/08/11 11:27:52;;;;;;;8.27;3.35;;;21.30;74.70;;;;;;5096699;28;20132;-71
2021/08/11 11:30:35;;;;;;;10.32;4.10;;;21.40;74.60;;;;;;5091525;28;20451;-75
2021/08/11 11:33:31;;;;;;;8.57;5.45;;;21.40;74.90;;;;;;5076291;28;20355;-71
2021/08/11 11:36:19;;;;;;;10.15;6.63;;;21.50;75.10;;;;;;5073636;28;20059;-71
2021/08/11 11:39:15;;;;;;;10.20;5.85;;;21.40;75.00;;;;;;5093427;28;20036;-72
2021/08/11 11:42:08;;;;;;;8.73;5.05;;;21.50;74.80;;;;;;5061227;28;20045;-70
2021/08/11 11:44:47;;;;;;;9.27;4.75;;;21.50;74.80;;;;;;5075826;28;20079;-71
2021/08/11 11:47:35;;;;;;;8.93;4.90;;;21.50;75.00;;;;;;5075837;28;20332;-70
2021/08/11 11:50:25;;;;;;;9.00;5.03;;;21.40;74.80;;;;;;5075946;28;20040;-70
2021/08/11 11:52:54;;;;;;;10.70;4.57;;;21.40;74.70;;;;;;5075486;28;20371;-71
2021/08/11 11:55:32;;;;;;;8.18;4.85;;;21.40;75.00;;;;;;5075790;28;20102;-71
2021/08/11 11:58:06;;;;;;;7.63;4.25;;;21.40;75.00;;;;;;5075906;28;20036;-72
2021/08/11 12:00:32;;;;;;;10.38;4.82;;;21.40;75.00;;;;;;5075887;28;20035;-70
2021/08/11 12:02:58;;;;;;;9.45;4.38;;;21.50;75.10;;;;;;5080591;28;20047;-71
2021/08/11 12:05:25;;;;;;;7.85;4.25;;;21.40;75.10;;;;;;5076275;28;20119;-72
2021/08/11 12:07:51;;;;;;;8.85;3.80;;;21.50;75.30;;;;;;5075382;28;20328;-71
2021/08/11 12:10:38;;;;;;;8.43;4.10;;;21.40;75.20;;;;;;5075967;28;20119;-72
2021/08/11 12:13:05;;;;;;;8.63;4.00;;;21.50;75.10;;;;;;5075539;28;20041;-71
2021/08/11 12:15:33;;;;;;;11.63;4.63;;;21.40;75.20;;;;;;5075580;28;20040;-71
2021/08/11 12:18:00;;;;;;;11.70;5.32;;;21.40;75.20;;;;;;5075492;28;20044;-72
2021/08/11 12:20:36;;;;;;;5.68;3.65;;;21.40;75.00;;;;;;5075026;28;20124;-71
2021/08/11 12:23:23;;;;;;;8.90;3.92;;;21.40;75.20;;;;;;5075684;28;20044;-71
2021/08/11 12:25:53;;;;;;;6.38;3.78;;;21.50;75.20;;;;;;5073698;28;20040;-71
2021/08/11 12:28:22;;;;;;;6.25;4.22;;;21.50;75.20;;;;;;5095514;28;20435;-71
2021/08/11 12:31:01;;;;;;;7.95;4.03;;;21.40;75.10;;;;;;5095518;28;20348;-71
2021/08/11 12:33:30;;;;;;;11.05;4.32;;;21.50;75.20;;;;;;5095723;28;20032;-71
2021/08/11 12:35:57;;;;;;;8.23;4.15;;;21.40;75.20;;;;;;5095473;28;20044;-71
2021/08/11 12:38:34;;;;;;;12.82;4.70;;;21.40;75.20;;;;;;5095712;28;20043;-71
2021/08/11 12:41:19;;;;;;;9.40;3.88;;;21.50;75.30;;;;;;5082483;28;20087;-72
2021/08/11 12:43:46;;;;;;;9.57;4.28;;;21.50;75.40;;;;;;5075495;28;20045;-72
2021/08/11 12:46:12;;;;;;;6.45;4.45;;;21.40;75.50;;;;;;5074996;28;20044;-74
2021/08/11 12:48:38;;;;;;;14.82;4.10;;;21.50;75.60;;;;;;5075399;28;20086;-75
2021/08/11 12:51:20;;;;;;;9.32;4.00;;;21.50;75.60;;;;;;5074974;28;20060;-71
2021/08/11 12:54:04;;;;;;;13.80;4.22;;;21.50;75.40;;;;;;5075140;28;20434;-72